createdAt,value
2023-03-22T06:02:48.890Z,9.24
2023-03-22T06:05:17.476Z,9.18
2023-03-22T06:07:45.404Z,9.14
2023-03-22T06:10:17.146Z,9.18
2023-03-22T06:12:45.139Z,9.14
2023-03-22T06:15:20.973Z,9.15
2023-03-22T06:18:06.529Z,9.21
2023-03-22T06:20:39.632Z,9.30
2023-03-22T06:23:12.943Z,9.33
2023-03-22T06:25:41.476Z,9.31
2023-03-22T06:28:08.879Z,9.42
2023-03-22T06:33:48.900Z,9.62
2023-03-22T06:36:36.532Z,9.72
2023-03-22T06:39:10.949Z,9.79
2023-03-22T06:41:39.129Z,9.83
2023-03-22T06:44:05.941Z,9.86
2023-03-22T06:46:44.830Z,9.95
2023-03-22T06:49:21.815Z,10.02
2023-03-22T06:51:51.923Z,10.09
2023-03-22T06:54:19.903Z,10.15
2023-03-22T06:56:47.225Z,10.19
2023-03-22T06:59:14.637Z,10.23
2023-03-22T07:01:41.703Z,10.28
2023-03-22T07:04:10.574Z,10.29
2023-03-22T07:06:38.747Z,10.33
2023-03-22T07:09:05.762Z,10.35
2023-03-22T07:11:36.102Z,10.41
2023-03-22T07:14:03.825Z,10.36
2023-03-22T07:16:48.948Z,10.42
2023-03-22T07:19:18.502Z,10.43
2023-03-22T07:21:46.152Z,10.51
2023-03-22T07:24:13.881Z,10.61
2023-03-22T07:26:41.593Z,10.63
2023-03-22T07:29:11.428Z,10.70
2023-03-22T07:31:39.831Z,10.71
2023-03-22T07:34:11.848Z,10.70
2023-03-22T07:36:57.370Z,10.65
2023-03-22T07:39:24.973Z,10.72
2023-03-22T07:41:52.573Z,10.75
2023-03-22T07:44:25.345Z,10.75
2023-03-22T07:47:14.952Z,10.81
2023-03-22T07:50:04.986Z,10.81
2023-03-22T07:52:32.859Z,10.84
2023-03-22T07:55:00.125Z,10.82
2023-03-22T07:57:26.707Z,10.87
2023-03-22T07:59:58.216Z,10.81
2023-03-22T08:02:29.999Z,10.88
2023-03-22T08:04:59.441Z,10.91
2023-03-22T08:07:35.549Z,10.95
2023-03-22T08:10:03.964Z,11.00
2023-03-22T08:12:32.503Z,11.05
2023-03-22T08:15:08.139Z,11.13
2023-03-22T08:17:35.376Z,11.10
2023-03-22T08:20:09.206Z,11.12
2023-03-22T08:22:46.018Z,11.19
2023-03-22T08:25:18.883Z,11.21
2023-03-22T08:27:45.877Z,11.27
2023-03-22T08:30:14.862Z,11.34
2023-03-22T08:32:43.505Z,11.43
2023-03-22T08:35:12.237Z,11.49
2023-03-22T08:37:39.977Z,11.57
2023-03-22T08:40:09.856Z,11.60
2023-03-22T08:42:50.740Z,11.66
2023-03-22T08:45:18.347Z,11.77
2023-03-22T08:47:52.511Z,11.84
2023-03-22T08:50:23.767Z,11.91
2023-03-22T08:53:04.313Z,12.04
2023-03-22T08:55:37.912Z,12.16
2023-03-22T08:58:16.279Z,12.36
2023-03-22T09:01:12.576Z,12.46
2023-03-22T09:03:47.482Z,12.42
2023-03-22T09:06:14.957Z,12.50
2023-03-22T09:08:45.347Z,12.57
2023-03-22T09:11:17.315Z,12.62
2023-03-22T09:13:45.884Z,12.71
2023-03-22T09:16:12.902Z,12.80
2023-03-22T09:18:40.445Z,12.82
2023-03-22T09:21:14.988Z,12.66
2023-03-22T09:24:05.527Z,12.59
2023-03-22T09:26:46.049Z,12.51
2023-03-22T09:29:16.316Z,12.59
2023-03-22T09:31:44.513Z,12.59
2023-03-22T09:34:25.963Z,12.58
2023-03-22T09:36:52.844Z,12.65
2023-03-22T09:39:24.653Z,12.75
2023-03-22T09:42:01.893Z,12.82
2023-03-22T09:44:41.490Z,12.97
2023-03-22T09:47:17.794Z,13.04
2023-03-22T09:49:54.097Z,13.10
2023-03-22T09:52:21.522Z,13.12
2023-03-22T09:54:50.954Z,13.14
2023-03-22T09:57:37.264Z,13.13
2023-03-22T10:00:21.163Z,13.28
2023-03-22T10:02:52.235Z,13.47
2023-03-22T10:05:37.589Z,13.53
2023-03-22T10:08:17.917Z,13.49
2023-03-22T10:10:44.933Z,13.44
2023-03-22T10:13:13.721Z,13.34
2023-03-22T10:15:46.168Z,13.33
2023-03-22T10:18:26.938Z,13.54
2023-03-22T10:21:01.043Z,13.72
2023-03-22T10:23:44.274Z,13.83
2023-03-22T10:26:21.953Z,13.86
2023-03-22T10:29:19.608Z,13.88
2023-03-22T10:31:46.304Z,13.86
2023-03-22T10:34:29.684Z,13.80
2023-03-22T10:37:00.862Z,13.89
2023-03-22T10:39:41.258Z,14.01
2023-03-22T10:42:15.428Z,14.14
2023-03-22T10:44:49.567Z,14.20
2023-03-22T10:47:33.653Z,14.29
2023-03-22T10:50:04.815Z,14.24
2023-03-22T10:53:03.041Z,14.25
2023-03-22T10:55:30.606Z,14.22
2023-03-22T10:58:15.249Z,14.16
2023-03-22T11:00:59.537Z,14.24
2023-03-22T11:03:29.416Z,14.21
2023-03-22T11:06:17.827Z,14.11
2023-03-22T11:08:49.220Z,14.21
2023-03-22T11:11:23.761Z,14.34
2023-03-22T11:13:59.068Z,14.46
2023-03-22T11:16:26.599Z,14.61
2023-03-22T11:18:54.808Z,14.69
2023-03-22T11:21:28.841Z,14.80
2023-03-22T11:24:00.418Z,14.82
2023-03-22T11:26:40.506Z,14.91
2023-03-22T11:29:19.233Z,14.89
2023-03-22T11:31:58.225Z,14.99
2023-03-22T11:34:28.320Z,14.96
2023-03-22T11:36:58.521Z,14.94
2023-03-22T11:39:30.003Z,14.78
2023-03-22T11:42:01.170Z,14.81
2023-03-22T11:44:32.313Z,14.77
2023-03-22T11:47:01.656Z,14.73
2023-03-22T11:49:35.649Z,14.72
2023-03-22T11:52:10.075Z,14.69
2023-03-22T11:54:39.892Z,14.72
2023-03-22T11:57:13.329Z,14.76
2023-03-22T11:59:48.328Z,14.73
2023-03-22T12:02:41.256Z,14.78
2023-03-22T12:05:18.923Z,14.85
2023-03-22T12:07:47.133Z,14.96
2023-03-22T12:10:25.386Z,15.01
2023-03-22T12:13:01.133Z,14.96
2023-03-22T12:15:33.565Z,14.94
2023-03-22T12:18:17.536Z,14.94
2023-03-22T12:20:59.349Z,14.98
2023-03-22T12:23:29.553Z,15.06
2023-03-22T12:26:01.858Z,15.19
2023-03-22T12:28:34.804Z,15.28
2023-03-22T12:31:03.995Z,15.39
2023-03-22T12:33:44.271Z,15.42
2023-03-22T12:36:17.198Z,15.39
2023-03-22T12:38:52.185Z,15.24
2023-03-22T12:41:40.627Z,15.19
2023-03-22T12:44:29.262Z,15.15
2023-03-22T12:47:07.842Z,15.17
2023-03-22T12:49:40.394Z,15.17
2023-03-22T12:52:46.183Z,15.19
2023-03-22T12:55:23.131Z,15.09
2023-03-22T12:57:52.456Z,15.12
2023-03-22T13:00:20.634Z,15.11
2023-03-22T13:03:05.595Z,15.11
2023-03-22T13:05:34.664Z,15.03
2023-03-22T13:08:04.049Z,14.96
2023-03-22T13:10:31.217Z,14.84
2023-03-22T13:13:19.962Z,14.72
2023-03-22T13:15:56.152Z,14.78
2023-03-22T13:18:37.871Z,14.68
2023-03-22T13:21:17.583Z,14.45
2023-03-22T13:24:06.286Z,14.33
2023-03-22T13:26:54.532Z,14.12
2023-03-22T13:29:36.347Z,14.10
2023-03-22T13:32:06.680Z,13.97
2023-03-22T13:34:46.416Z,13.89
2023-03-22T13:37:45.573Z,13.83
2023-03-22T13:40:39.748Z,13.74
2023-03-22T13:43:28.354Z,13.61
2023-03-22T13:46:12.927Z,13.52
2023-03-22T13:48:50.654Z,13.49
2023-03-22T13:51:32.084Z,13.54
2023-03-22T13:54:03.531Z,13.58
2023-03-22T13:56:36.386Z,13.67
2023-03-22T13:59:04.885Z,13.69
2023-03-22T14:01:36.490Z,13.63
2023-03-22T14:04:14.141Z,13.58
2023-03-22T14:06:53.995Z,13.59
2023-03-22T14:09:32.440Z,13.63
2023-03-22T14:12:21.557Z,13.63
2023-03-22T14:14:58.225Z,13.69
2023-03-22T14:17:58.994Z,13.70
2023-03-22T14:20:30.681Z,13.70
